Nomini Grove, Virginia
Current Conditions -  °F | °C
As of 3:15 PM on Sunday 25 Jan 2015 (Local Time) from KXSA Reporting Station
Clear Clear  
Wind Chill: 53°   Ceiling: Unl
Heat Index: 53°   Visibility: 10mi
Dew Point: 26°   Wind: 8mph
Humidity: 35%   Direction: 230°SW
Pressure: 29.84"   Gusts: NA
Location:  37.967°N, 76.7668°W
Report Text: KXSA 252015Z AUTO 23007KT 10SM CLR 12/M03 A2984 RMK AO2 T01161033
Loading
Personal Weather Stations






























Interactive Weather Map New forecast layout! Learn more

10-Day Weather Forecast

Advertisements
Track Severe Weather on mobile